sensor_id;sensor_type;location;lat;lon;timestamp;pressure;altitude;pressure_sealevel;temperature;humidity
967;BME280;56108;48.730;9.304;2023-02-19T00:00:22;98059.16;;;9.01;100.00
967;BME280;56108;48.730;9.304;2023-02-19T00:02:32;98056.50;;;9.01;100.00
967;BME280;56108;48.730;9.304;2023-02-19T00:04:40;98057.34;;;9.01;100.00
967;BME280;56108;48.730;9.304;2023-02-19T00:06:49;98059.25;;;8.99;100.00
967;BME280;56108;48.730;9.304;2023-02-19T00:08:57;98060.44;;;8.94;100.00
967;BME280;56108;48.730;9.304;2023-02-19T00:11:06;98054.78;;;9.00;100.00
967;BME280;56108;48.730;9.304;2023-02-19T00:13:15;98057.84;;;9.08;100.00
967;BME280;56108;48.730;9.304;2023-02-19T00:15:23;98062.84;;;9.14;100.00
967;BME280;56108;48.730;9.304;2023-02-19T00:17:34;98068.56;;;9.06;100.00
967;BME280;56108;48.730;9.304;2023-02-19T00:19:42;98061.47;;;9.07;100.00
967;BME280;56108;48.730;9.304;2023-02-19T00:21:50;98056.50;;;9.01;100.00
967;BME280;56108;48.730;9.304;2023-02-19T00:24:00;98060.19;;;9.14;100.00
967;BME280;56108;48.730;9.304;2023-02-19T00:26:10;98059.16;;;9.01;100.00
967;BME280;56108;48.730;9.304;2023-02-19T00:28:24;98065.50;;;8.98;100.00
967;BME280;56108;48.730;9.304;2023-02-19T00:30:32;98066.28;;;9.00;100.00
967;BME280;56108;48.730;9.304;2023-02-19T00:32:42;98063.53;;;9.02;100.00
967;BME280;56108;48.730;9.304;2023-02-19T00:34:51;98057.53;;;8.98;100.00
967;BME280;56108;48.730;9.304;2023-02-19T00:36:59;98050.50;;;8.97;100.00
967;BME280;56108;48.730;9.304;2023-02-19T00:39:07;98057.69;;;8.95;100.00
967;BME280;56108;48.730;9.304;2023-02-19T00:41:24;98053.09;;;8.99;100.00
967;BME280;56108;48.730;9.304;2023-02-19T00:43:32;98063.78;;;8.97;100.00
967;BME280;56108;48.730;9.304;2023-02-19T00:45:40;98062.66;;;9.01;100.00
967;BME280;56108;48.730;9.304;2023-02-19T00:47:55;98072.28;;;9.04;100.00
967;BME280;56108;48.730;9.304;2023-02-19T00:50:03;98073.28;;;9.17;100.00
967;BME280;56108;48.730;9.304;2023-02-19T00:52:11;98078.59;;;9.17;100.00
967;BME280;56108;48.730;9.304;2023-02-19T00:54:20;98082.19;;;9.16;100.00
967;BME280;56108;48.730;9.304;2023-02-19T00:56:28;98076.03;;;9.15;100.00
967;BME280;56108;48.730;9.304;2023-02-19T00:58:38;98074.22;;;9.16;100.00
967;BME280;56108;48.730;9.304;2023-02-19T01:00:46;98073.97;;;9.05;100.00
967;BME280;56108;48.730;9.304;2023-02-19T01:02:56;98080.31;;;9.18;100.00
967;BME280;56108;48.730;9.304;2023-02-19T01:05:05;98095.56;;;9.30;100.00
967;BME280;56108;48.730;9.304;2023-02-19T01:07:13;98095.22;;;9.36;100.00
967;BME280;56108;48.730;9.304;2023-02-19T01:09:21;98100.41;;;9.54;100.00
967;BME280;56108;48.730;9.304;2023-02-19T01:11:29;98083.13;;;9.47;100.00
967;BME280;56108;48.730;9.304;2023-02-19T01:13:38;98085.75;;;9.62;100.00
967;BME280;56108;48.730;9.304;2023-02-19T01:15:46;98092.63;;;9.66;100.00
967;BME280;56108;48.730;9.304;2023-02-19T01:17:57;98078.09;;;9.72;100.00
967;BME280;56108;48.730;9.304;2023-02-19T01:20:05;98077.28;;;9.86;100.00
967;BME280;56108;48.730;9.304;2023-02-19T01:22:13;98081.84;;;9.84;100.00
967;BME280;56108;48.730;9.304;2023-02-19T01:24:21;98066.63;;;9.72;100.00
967;BME280;56108;48.730;9.304;2023-02-19T01:26:31;98068.06;;;9.77;100.00
967;BME280;56108;48.730;9.304;2023-02-19T01:28:40;98066.44;;;9.75;100.00
967;BME280;56108;48.730;9.304;2023-02-19T01:30:48;98075.31;;;9.89;100.00
967;BME280;56108;48.730;9.304;2023-02-19T01:32:59;98071.22;;;9.84;100.00
967;BME280;56108;48.730;9.304;2023-02-19T01:35:07;98074.81;;;9.83;100.00
967;BME280;56108;48.730;9.304;2023-02-19T01:37:15;98073.13;;;9.82;100.00
967;BME280;56108;48.730;9.304;2023-02-19T01:39:23;98068.97;;;9.92;100.00
967;BME280;56108;48.730;9.304;2023-02-19T01:41:34;98068.38;;;9.87;100.00
967;BME280;56108;48.730;9.304;2023-02-19T01:44:00;98059.19;;;9.92;100.00
967;BME280;56108;48.730;9.304;2023-02-19T01:46:12;98055.75;;;9.90;100.00
967;BME280;56108;48.730;9.304;2023-02-19T01:48:25;98055.78;;;10.05;100.00
967;BME280;56108;48.730;9.304;2023-02-19T01:50:37;98054.72;;;9.93;100.00
967;BME280;56108;48.730;9.304;2023-02-19T01:52:47;98056.81;;;9.88;100.00
967;BME280;56108;48.730;9.304;2023-02-19T01:54:56;98047.66;;;9.78;100.00
967;BME280;56108;48.730;9.304;2023-02-19T01:57:09;98055.38;;;9.82;100.00
967;BME280;56108;48.730;9.304;2023-02-19T01:59:19;98059.19;;;9.92;100.00
967;BME280;56108;48.730;9.304;2023-02-19T02:01:27;98058.34;;;9.92;100.00
967;BME280;56108;48.730;9.304;2023-02-19T02:03:39;98048.13;;;9.84;100.00
967;BME280;56108;48.730;9.304;2023-02-19T02:05:52;98048.50;;;9.78;100.00
967;BME280;56108;48.730;9.304;2023-02-19T02:08:03;98051.84;;;9.82;100.00
967;BME280;56108;48.730;9.304;2023-02-19T02:10:26;98052.78;;;9.81;100.00
967;BME280;56108;48.730;9.304;2023-02-19T02:12:34;98052.69;;;9.82;100.00
967;BME280;56108;48.730;9.304;2023-02-19T02:14:44;98056.31;;;9.96;100.00
967;BME280;56108;48.730;9.304;2023-02-19T02:16:59;98052.91;;;9.93;100.00
967;BME280;56108;48.730;9.304;2023-02-19T02:19:29;98048.13;;;9.84;100.00
967;BME280;56108;48.730;9.304;2023-02-19T02:21:54;98047.97;;;9.87;100.00
967;BME280;56108;48.730;9.304;2023-02-19T02:24:11;98049.88;;;10.00;100.00
967;BME280;56108;48.730;9.304;2023-02-19T02:26:43;98050.91;;;9.83;100.00
967;BME280;56108;48.730;9.304;2023-02-19T02:29:19;98043.03;;;9.65;100.00
967;BME280;56108;48.730;9.304;2023-02-19T02:31:34;98044.38;;;9.88;100.00
967;BME280;56108;48.730;9.304;2023-02-19T02:33:52;98039.31;;;9.84;100.00
967;BME280;56108;48.730;9.304;2023-02-19T02:36:05;98038.03;;;9.75;100.00
967;BME280;56108;48.730;9.304;2023-02-19T02:38:17;98032.28;;;9.53;100.00
967;BME280;56108;48.730;9.304;2023-02-19T02:40:26;98034.16;;;9.81;100.00
967;BME280;56108;48.730;9.304;2023-02-19T02:42:38;98022.72;;;9.50;100.00
967;BME280;56108;48.730;9.304;2023-02-19T02:44:49;98028.28;;;9.46;100.00
967;BME280;56108;48.730;9.304;2023-02-19T02:47:15;98025.00;;;9.56;100.00
967;BME280;56108;48.730;9.304;2023-02-19T02:49:35;98016.34;;;9.53;100.00
967;BME280;56108;48.730;9.304;2023-02-19T02:52:03;98016.50;;;9.50;100.00
967;BME280;56108;48.730;9.304;2023-02-19T02:54:32;98015.00;;;9.46;100.00
967;BME280;56108;48.730;9.304;2023-02-19T02:56:55;98018.53;;;9.30;100.00
967;BME280;56108;48.730;9.304;2023-02-19T02:59:10;98012.97;;;9.35;100.00
967;BME280;56108;48.730;9.304;2023-02-19T03:01:23;98018.06;;;9.54;100.00
967;BME280;56108;48.730;9.304;2023-02-19T03:03:50;98016.97;;;9.42;100.00
967;BME280;56108;48.730;9.304;2023-02-19T03:06:03;98017.34;;;9.36;100.00
967;BME280;56108;48.730;9.304;2023-02-19T03:08:12;98009.72;;;9.30;100.00
967;BME280;56108;48.730;9.304;2023-02-19T03:10:25;98017.25;;;9.37;100.00
967;BME280;56108;48.730;9.304;2023-02-19T03:12:36;98015.84;;;9.46;100.00
967;BME280;56108;48.730;9.304;2023-02-19T03:15:08;98015.06;;;9.44;100.00
967;BME280;56108;48.730;9.304;2023-02-19T03:17:50;98009.38;;;9.36;100.00
967;BME280;56108;48.730;9.304;2023-02-19T03:20:17;98004.38;;;9.46;100.00
967;BME280;56108;48.730;9.304;2023-02-19T03:22:28;98006.41;;;9.56;100.00
967;BME280;56108;48.730;9.304;2023-02-19T03:24:40;98008.69;;;9.32;100.00
967;BME280;56108;48.730;9.304;2023-02-19T03:27:03;98004.53;;;9.43;100.00
967;BME280;56108;48.730;9.304;2023-02-19T03:29:17;97991.88;;;9.32;100.00
967;BME280;56108;48.730;9.304;2023-02-19T03:31:43;97996.94;;;9.36;100.00
967;BME280;56108;48.730;9.304;2023-02-19T03:33:55;97999.00;;;9.31;100.00
967;BME280;56108;48.730;9.304;2023-02-19T03:36:09;98001.06;;;9.26;100.00
967;BME280;56108;48.730;9.304;2023-02-19T03:38:22;97992.06;;;9.29;100.00
967;BME280;56108;48.730;9.304;2023-02-19T03:40:36;97992.09;;;9.13;100.00
967;BME280;56108;48.730;9.304;2023-02-19T03:42:55;97987.75;;;8.96;100.00
967;BME280;56108;48.730;9.304;2023-02-19T03:45:23;97986.72;;;9.14;100.00
967;BME280;56108;48.730;9.304;2023-02-19T03:47:34;97988.69;;;8.95;100.00
967;BME280;56108;48.730;9.304;2023-02-19T03:49:54;97986.47;;;9.03;100.00
967;BME280;56108;48.730;9.304;2023-02-19T03:52:12;97986.97;;;8.94;100.00
967;BME280;56108;48.730;9.304;2023-02-19T03:54:29;97992.81;;;8.85;100.00
967;BME280;56108;48.730;9.304;2023-02-19T03:56:44;97991.84;;;8.86;100.00
967;BME280;56108;48.730;9.304;2023-02-19T03:58:58;97993.91;;;8.97;100.00
967;BME280;56108;48.730;9.304;2023-02-19T04:01:12;97999.56;;;8.75;100.00
967;BME280;56108;48.730;9.304;2023-02-19T04:03:25;97992.91;;;8.68;100.00
967;BME280;56108;48.730;9.304;2023-02-19T04:05:38;97999.56;;;8.75;100.00
967;BME280;56108;48.730;9.304;2023-02-19T04:07:53;98002.22;;;8.59;100.00
967;BME280;56108;48.730;9.304;2023-02-19T04:10:09;97993.75;;;8.68;100.00
967;BME280;56108;48.730;9.304;2023-02-19T04:12:22;97999.91;;;8.69;100.00
967;BME280;56108;48.730;9.304;2023-02-19T04:14:34;97999.03;;;8.52;100.00
967;BME280;56108;48.730;9.304;2023-02-19T04:16:47;97994.84;;;8.64;100.00
967;BME280;56108;48.730;9.304;2023-02-19T04:18:59;98008.28;;;8.61;100.00
967;BME280;56108;48.730;9.304;2023-02-19T04:21:08;98011.47;;;8.68;100.00
967;BME280;56108;48.730;9.304;2023-02-19T04:23:22;98014.53;;;8.76;100.00
967;BME280;56108;48.730;9.304;2023-02-19T04:25:34;98016.06;;;8.64;100.00
967;BME280;56108;48.730;9.304;2023-02-19T04:27:43;98024.47;;;8.56;100.00
967;BME280;56108;48.730;9.304;2023-02-19T04:29:52;98026.34;;;8.54;100.00
967;BME280;56108;48.730;9.304;2023-02-19T04:32:00;98027.63;;;8.63;100.00
967;BME280;56108;48.730;9.304;2023-02-19T04:34:08;98022.34;;;8.63;100.00
967;BME280;56108;48.730;9.304;2023-02-19T04:36:16;98038.34;;;8.61;100.00
967;BME280;56108;48.730;9.304;2023-02-19T04:38:27;98035.00;;;8.58;100.00
967;BME280;56108;48.730;9.304;2023-02-19T04:40:35;98042.28;;;8.70;100.00
967;BME280;56108;48.730;9.304;2023-02-19T04:42:43;98052.47;;;8.62;100.00
967;BME280;56108;48.730;9.304;2023-02-19T04:44:50;98058.38;;;8.67;100.00
967;BME280;56108;48.730;9.304;2023-02-19T04:46:58;98053.75;;;8.86;100.00
967;BME280;56108;48.730;9.304;2023-02-19T04:49:06;98060.94;;;8.69;100.00
967;BME280;56108;48.730;9.304;2023-02-19T04:51:14;98066.06;;;8.72;100.00
967;BME280;56108;48.730;9.304;2023-02-19T04:53:22;98068.47;;;8.76;100.00
967;BME280;56108;48.730;9.304;2023-02-19T04:55:35;98084.84;;;8.84;100.00
967;BME280;56108;48.730;9.304;2023-02-19T04:57:43;98088.19;;;8.88;100.00
967;BME280;56108;48.730;9.304;2023-02-19T04:59:51;98083.91;;;8.85;100.00
967;BME280;56108;48.730;9.304;2023-02-19T05:01:58;98084.38;;;8.76;100.00
967;BME280;56108;48.730;9.304;2023-02-19T05:04:06;98087.56;;;8.67;100.00
967;BME280;56108;48.730;9.304;2023-02-19T05:06:14;98094.84;;;8.79;100.00
967;BME280;56108;48.730;9.304;2023-02-19T05:08:23;98088.16;;;8.72;100.00
967;BME280;56108;48.730;9.304;2023-02-19T05:10:34;98092.53;;;8.73;100.00
967;BME280;56108;48.730;9.304;2023-02-19T05:12:42;98083.88;;;8.70;100.00
967;BME280;56108;48.730;9.304;2023-02-19T05:14:50;98080.28;;;8.71;100.00
967;BME280;56108;48.730;9.304;2023-02-19T05:16:58;98081.47;;;8.81;100.00
967;BME280;56108;48.730;9.304;2023-02-19T05:19:08;98080.97;;;8.74;100.00
967;BME280;56108;48.730;9.304;2023-02-19T05:21:17;98082.25;;;8.67;100.00
967;BME280;56108;48.730;9.304;2023-02-19T05:23:26;98090.25;;;8.83;100.00
967;BME280;56108;48.730;9.304;2023-02-19T05:25:34;98091.91;;;8.68;100.00
967;BME280;56108;48.730;9.304;2023-02-19T05:27:42;98089.88;;;8.73;100.00
967;BME280;56108;48.730;9.304;2023-02-19T05:29:50;98094.16;;;8.76;100.00
967;BME280;56108;48.730;9.304;2023-02-19T05:31:58;98091.06;;;8.68;100.00
967;BME280;56108;48.730;9.304;2023-02-19T05:34:06;98080.13;;;8.74;100.00
967;BME280;56108;48.730;9.304;2023-02-19T05:36:14;98081.81;;;8.75;100.00
967;BME280;56108;48.730;9.304;2023-02-19T05:38:22;98080.72;;;8.79;100.00
967;BME280;56108;48.730;9.304;2023-02-19T05:40:34;98081.44;;;8.82;100.00
967;BME280;56108;48.730;9.304;2023-02-19T05:42:42;98091.50;;;8.92;100.00
967;BME280;56108;48.730;9.304;2023-02-19T05:44:49;98098.09;;;8.84;100.00
967;BME280;56108;48.730;9.304;2023-02-19T05:46:57;98091.75;;;8.87;100.00
967;BME280;56108;48.730;9.304;2023-02-19T05:49:05;98100.00;;;8.82;100.00
967;BME280;56108;48.730;9.304;2023-02-19T05:51:15;98098.34;;;8.80;100.00
967;BME280;56108;48.730;9.304;2023-02-19T05:53:23;98096.41;;;8.83;100.00
967;BME280;56108;48.730;9.304;2023-02-19T05:55:35;98102.97;;;8.76;100.00
967;BME280;56108;48.730;9.304;2023-02-19T05:57:45;98108.69;;;8.69;100.00
967;BME280;56108;48.730;9.304;2023-02-19T05:59:53;98106.28;;;8.64;100.00
967;BME280;56108;48.730;9.304;2023-02-19T06:02:03;98100.13;;;8.63;100.00
967;BME280;56108;48.730;9.304;2023-02-19T06:04:11;98107.66;;;8.71;100.00
967;BME280;56108;48.730;9.304;2023-02-19T06:06:21;98104.56;;;8.63;100.00
967;BME280;56108;48.730;9.304;2023-02-19T06:08:30;98117.41;;;8.71;100.00
967;BME280;56108;48.730;9.304;2023-02-19T06:10:41;98127.19;;;8.70;100.00
967;BME280;56108;48.730;9.304;2023-02-19T06:12:51;98123.25;;;8.61;100.00
967;BME280;56108;48.730;9.304;2023-02-19T06:14:59;98126.50;;;8.67;100.00
967;BME280;56108;48.730;9.304;2023-02-19T06:17:08;98130.78;;;8.69;100.00
967;BME280;56108;48.730;9.304;2023-02-19T06:19:16;98128.44;;;8.63;100.00
967;BME280;56108;48.730;9.304;2023-02-19T06:21:24;98133.94;;;8.76;100.00
967;BME280;56108;48.730;9.304;2023-02-19T06:23:32;98136.56;;;8.60;100.00
967;BME280;56108;48.730;9.304;2023-02-19T06:25:42;98147.78;;;8.65;100.00
967;BME280;56108;48.730;9.304;2023-02-19T06:27:50;98141.91;;;8.43;100.00
967;BME280;56108;48.730;9.304;2023-02-19T06:29:58;98145.19;;;8.48;100.00
967;BME280;56108;48.730;9.304;2023-02-19T06:32:06;98139.16;;;8.27;100.00
967;BME280;56108;48.730;9.304;2023-02-19T06:34:14;98142.97;;;8.21;100.00
967;BME280;56108;48.730;9.304;2023-02-19T06:36:22;98150.75;;;8.24;100.00
967;BME280;56108;48.730;9.304;2023-02-19T06:38:30;98156.06;;;8.07;100.00
967;BME280;56108;48.730;9.304;2023-02-19T06:40:38;98161.56;;;8.04;100.00
967;BME280;56108;48.730;9.304;2023-02-19T06:42:48;98153.72;;;8.01;100.00
967;BME280;56108;48.730;9.304;2023-02-19T06:44:58;98147.91;;;8.11;100.00
967;BME280;56108;48.730;9.304;2023-02-19T06:47:06;98154.69;;;8.00;100.00
967;BME280;56108;48.730;9.304;2023-02-19T06:49:14;98159.75;;;8.04;100.00
967;BME280;56108;48.730;9.304;2023-02-19T06:51:22;98161.22;;;8.10;100.00
967;BME280;56108;48.730;9.304;2023-02-19T06:53:32;98171.44;;;8.18;100.00
967;BME280;56108;48.730;9.304;2023-02-19T06:55:40;98181.41;;;8.13;100.00
967;BME280;56108;48.730;9.304;2023-02-19T06:57:51;98189.28;;;8.14;100.00
967;BME280;56108;48.730;9.304;2023-02-19T06:59:58;98183.34;;;8.09;100.00
967;BME280;56108;48.730;9.304;2023-02-19T07:02:09;98183.94;;;8.16;100.00
967;BME280;56108;48.730;9.304;2023-02-19T07:04:18;98197.22;;;8.14;100.00
967;BME280;56108;48.730;9.304;2023-02-19T07:06:27;98194.66;;;8.13;100.00
967;BME280;56108;48.730;9.304;2023-02-19T07:08:34;98194.53;;;8.16;100.00
967;BME280;56108;48.730;9.304;2023-02-19T07:10:42;98212.81;;;8.39;100.00
967;BME280;56108;48.730;9.304;2023-02-19T07:12:53;98217.41;;;8.35;100.00
967;BME280;56108;48.730;9.304;2023-02-19T07:15:01;98223.59;;;8.34;100.00
967;BME280;56108;48.730;9.304;2023-02-19T07:17:09;98221.63;;;8.40;100.00
967;BME280;56108;48.730;9.304;2023-02-19T07:19:16;98207.69;;;8.34;100.00
967;BME280;56108;48.730;9.304;2023-02-19T07:21:25;98209.84;;;8.45;100.00
967;BME280;56108;48.730;9.304;2023-02-19T07:23:33;98216.50;;;8.36;100.00
967;BME280;56108;48.730;9.304;2023-02-19T07:25:42;98223.50;;;8.38;100.00
967;BME280;56108;48.730;9.304;2023-02-19T07:27:49;98236.69;;;8.39;100.00
967;BME280;56108;48.730;9.304;2023-02-19T07:30:00;98238.09;;;8.46;100.00
967;BME280;56108;48.730;9.304;2023-02-19T07:32:08;98232.41;;;8.36;100.00
967;BME280;56108;48.730;9.304;2023-02-19T07:34:16;98239.91;;;8.27;100.00
967;BME280;56108;48.730;9.304;2023-02-19T07:36:24;98236.88;;;8.34;100.00
967;BME280;56108;48.730;9.304;2023-02-19T07:38:32;98235.78;;;8.21;100.00
967;BME280;56108;48.730;9.304;2023-02-19T07:40:41;98223.53;;;8.19;100.00
967;BME280;56108;48.730;9.304;2023-02-19T07:42:48;98229.09;;;8.31;100.00
967;BME280;56108;48.730;9.304;2023-02-19T07:44:59;98237.19;;;8.28;100.00
967;BME280;56108;48.730;9.304;2023-02-19T07:47:07;98234.19;;;8.36;100.00
967;BME280;56108;48.730;9.304;2023-02-19T07:49:15;98228.41;;;8.45;100.00
967;BME280;56108;48.730;9.304;2023-02-19T07:51:23;98228.81;;;8.38;100.00
967;BME280;56108;48.730;9.304;2023-02-19T07:53:32;98234.91;;;8.57;100.00
967;BME280;56108;48.730;9.304;2023-02-19T07:55:40;98226.94;;;8.57;100.00
967;BME280;56108;48.730;9.304;2023-02-19T07:57:48;98217.34;;;8.54;100.00
967;BME280;56108;48.730;9.304;2023-02-19T07:59:56;98232.06;;;8.60;100.00
967;BME280;56108;48.730;9.304;2023-02-19T08:02:10;98235.97;;;8.70;99.96
967;BME280;56108;48.730;9.304;2023-02-19T08:04:34;98232.22;;;8.74;99.03
967;BME280;56108;48.730;9.304;2023-02-19T08:06:45;98233.31;;;8.70;98.62
967;BME280;56108;48.730;9.304;2023-02-19T08:08:52;98240.41;;;8.87;98.06
967;BME280;56108;48.730;9.304;2023-02-19T08:11:02;98235.56;;;8.95;98.45
967;BME280;56108;48.730;9.304;2023-02-19T08:13:25;98234.78;;;8.93;96.65
967;BME280;56108;48.730;9.304;2023-02-19T08:15:31;98231.97;;;8.96;96.54
967;BME280;56108;48.730;9.304;2023-02-19T08:17:42;98236.09;;;9.02;95.77
967;BME280;56108;48.730;9.304;2023-02-19T08:19:50;98242.63;;;9.12;94.67
967;BME280;56108;48.730;9.304;2023-02-19T08:21:58;98246.75;;;9.18;95.61
967;BME280;56108;48.730;9.304;2023-02-19T08:24:06;98257.72;;;9.27;93.43
967;BME280;56108;48.730;9.304;2023-02-19T08:26:14;98269.22;;;9.28;91.14
967;BME280;56108;48.730;9.304;2023-02-19T08:28:22;98277.75;;;9.34;90.95
967;BME280;56108;48.730;9.304;2023-02-19T08:30:31;98280.53;;;9.31;91.50
967;BME280;56108;48.730;9.304;2023-02-19T08:32:42;98292.63;;;9.37;90.63
967;BME280;56108;48.730;9.304;2023-02-19T08:34:50;98292.78;;;9.34;90.24
967;BME280;56108;48.730;9.304;2023-02-19T08:36:58;98293.97;;;9.46;90.43
967;BME280;56108;48.730;9.304;2023-02-19T08:39:05;98303.50;;;9.32;91.15
967;BME280;56108;48.730;9.304;2023-02-19T08:41:14;98300.56;;;9.21;94.42
967;BME280;56108;48.730;9.304;2023-02-19T08:43:22;98302.38;;;9.21;95.12
967;BME280;56108;48.730;9.304;2023-02-19T08:45:30;98297.72;;;9.08;98.27
967;BME280;56108;48.730;9.304;2023-02-19T08:47:42;98306.28;;;9.13;99.86
967;BME280;56108;48.730;9.304;2023-02-19T08:49:50;98299.03;;;9.33;98.93
967;BME280;56108;48.730;9.304;2023-02-19T08:51:57;98299.56;;;9.39;98.84
967;BME280;56108;48.730;9.304;2023-02-19T08:54:06;98314.06;;;9.50;96.37
967;BME280;56108;48.730;9.304;2023-02-19T08:56:15;98309.28;;;9.40;95.50
967;BME280;56108;48.730;9.304;2023-02-19T08:58:24;98305.69;;;9.41;96.01
967;BME280;56108;48.730;9.304;2023-02-19T09:00:32;98306.78;;;9.37;96.42
967;BME280;56108;48.730;9.304;2023-02-19T09:02:42;98314.25;;;9.47;95.74
967;BME280;56108;48.730;9.304;2023-02-19T09:04:50;98309.44;;;9.37;94.79
967;BME280;56108;48.730;9.304;2023-02-19T09:06:58;98308.91;;;9.31;95.06
967;BME280;56108;48.730;9.304;2023-02-19T09:09:09;98320.16;;;9.36;95.08
967;BME280;56108;48.730;9.304;2023-02-19T09:11:17;98328.44;;;9.30;94.26
967;BME280;56108;48.730;9.304;2023-02-19T09:13:25;98329.97;;;9.34;94.67
967;BME280;56108;48.730;9.304;2023-02-19T09:15:36;98330.00;;;9.17;94.00
967;BME280;56108;48.730;9.304;2023-02-19T09:17:50;98338.34;;;9.26;94.80
967;BME280;56108;48.730;9.304;2023-02-19T09:19:58;98340.59;;;9.34;94.37
967;BME280;56108;48.730;9.304;2023-02-19T09:22:06;98352.41;;;9.28;94.15
967;BME280;56108;48.730;9.304;2023-02-19T09:24:14;98339.69;;;9.35;93.42
967;BME280;56108;48.730;9.304;2023-02-19T09:26:22;98347.47;;;9.38;92.76
967;BME280;56108;48.730;9.304;2023-02-19T09:28:31;98348.38;;;9.54;91.38
967;BME280;56108;48.730;9.304;2023-02-19T09:30:39;98353.81;;;9.68;91.10
967;BME280;56108;48.730;9.304;2023-02-19T09:32:51;98357.47;;;9.83;90.94
967;BME280;56108;48.730;9.304;2023-02-19T09:34:59;98356.00;;;9.93;89.01
967;BME280;56108;48.730;9.304;2023-02-19T09:37:07;98346.75;;;10.01;88.15
967;BME280;56108;48.730;9.304;2023-02-19T09:39:15;98358.31;;;9.84;84.57
967;BME280;56108;48.730;9.304;2023-02-19T09:41:29;98361.22;;;9.79;84.20
967;BME280;56108;48.730;9.304;2023-02-19T09:43:40;98344.66;;;9.74;82.63
967;BME280;56108;48.730;9.304;2023-02-19T09:45:54;98349.56;;;9.82;83.13
967;BME280;56108;48.730;9.304;2023-02-19T09:48:08;98351.81;;;9.89;80.56
967;BME280;56108;48.730;9.304;2023-02-19T09:50:30;98351.22;;;10.00;79.64
967;BME280;56108;48.730;9.304;2023-02-19T09:52:41;98363.31;;;10.06;78.58
967;BME280;56108;48.730;9.304;2023-02-19T09:54:53;98367.13;;;10.33;78.48
967;BME280;56108;48.730;9.304;2023-02-19T09:57:03;98369.34;;;10.57;76.86
967;BME280;56108;48.730;9.304;2023-02-19T09:59:17;98374.06;;;10.67;76.48
967;BME280;56108;48.730;9.304;2023-02-19T10:01:31;98381.56;;;10.45;74.37
967;BME280;56108;48.730;9.304;2023-02-19T10:03:45;98374.50;;;10.60;74.89
967;BME280;56108;48.730;9.304;2023-02-19T10:05:54;98370.72;;;10.64;74.17
967;BME280;56108;48.730;9.304;2023-02-19T10:08:05;98369.78;;;10.65;71.75
967;BME280;56108;48.730;9.304;2023-02-19T10:10:27;98358.88;;;10.54;73.04
967;BME280;56108;48.730;9.304;2023-02-19T10:12:51;98362.03;;;10.76;70.77
967;BME280;56108;48.730;9.304;2023-02-19T10:15:07;98363.38;;;10.83;70.35
967;BME280;56108;48.730;9.304;2023-02-19T10:17:21;98359.66;;;11.02;69.67
967;BME280;56108;48.730;9.304;2023-02-19T10:19:39;98375.78;;;11.87;66.67
967;BME280;56108;48.730;9.304;2023-02-19T10:21:48;98385.94;;;12.38;63.47
967;BME280;56108;48.730;9.304;2023-02-19T10:23:59;98392.72;;;12.29;63.00
967;BME280;56108;48.730;9.304;2023-02-19T10:26:13;98382.34;;;12.24;63.31
967;BME280;56108;48.730;9.304;2023-02-19T10:28:24;98382.03;;;11.72;64.92
967;BME280;56108;48.730;9.304;2023-02-19T10:30:35;98386.06;;;11.93;65.58
967;BME280;56108;48.730;9.304;2023-02-19T10:32:57;98388.81;;;11.77;65.41
967;BME280;56108;48.730;9.304;2023-02-19T10:35:11;98391.16;;;11.54;66.38
967;BME280;56108;48.730;9.304;2023-02-19T10:37:19;98386.78;;;11.67;66.81
967;BME280;56108;48.730;9.304;2023-02-19T10:39:38;98384.22;;;11.51;68.21
967;BME280;56108;48.730;9.304;2023-02-19T10:44:05;98385.78;;;11.25;70.63
967;BME280;56108;48.730;9.304;2023-02-19T10:46:17;98382.34;;;11.23;70.80
967;BME280;56108;48.730;9.304;2023-02-19T10:48:28;98394.50;;;11.13;69.95
967;BME280;56108;48.730;9.304;2023-02-19T10:50:39;98401.13;;;11.06;70.85
967;BME280;56108;48.730;9.304;2023-02-19T10:52:54;98400.25;;;11.05;69.27
967;BME280;56108;48.730;9.304;2023-02-19T10:55:19;98393.97;;;10.76;71.72
967;BME280;56108;48.730;9.304;2023-02-19T10:57:32;98399.13;;;10.79;70.37
967;BME280;56108;48.730;9.304;2023-02-19T10:59:49;98402.34;;;11.00;70.86
967;BME280;56108;48.730;9.304;2023-02-19T11:01:59;98406.78;;;11.15;70.28
967;BME280;56108;48.730;9.304;2023-02-19T11:04:15;98401.16;;;11.20;69.08
967;BME280;56108;48.730;9.304;2023-02-19T11:06:27;98405.22;;;11.41;67.73
967;BME280;56108;48.730;9.304;2023-02-19T11:08:54;98409.00;;;11.23;67.16
967;BME280;56108;48.730;9.304;2023-02-19T11:11:02;98410.44;;;11.43;67.36
967;BME280;56108;48.730;9.304;2023-02-19T11:13:14;98410.59;;;11.56;66.51
967;BME280;56108;48.730;9.304;2023-02-19T11:15:26;98403.94;;;11.63;64.65
967;BME280;56108;48.730;9.304;2023-02-19T11:17:35;98397.88;;;11.75;65.35
967;BME280;56108;48.730;9.304;2023-02-19T11:19:44;98405.03;;;12.03;64.47
967;BME280;56108;48.730;9.304;2023-02-19T11:21:56;98409.81;;;12.12;64.59
967;BME280;56108;48.730;9.304;2023-02-19T11:24:05;98403.97;;;12.20;61.02
967;BME280;56108;48.730;9.304;2023-02-19T11:26:16;98410.75;;;11.97;62.07
967;BME280;56108;48.730;9.304;2023-02-19T11:28:33;98406.91;;;12.15;61.62
967;BME280;56108;48.730;9.304;2023-02-19T11:30:42;98410.94;;;12.22;62.27
967;BME280;56108;48.730;9.304;2023-02-19T11:32:50;98423.72;;;12.17;62.80
967;BME280;56108;48.730;9.304;2023-02-19T11:35:14;98421.78;;;12.19;62.31
967;BME280;56108;48.730;9.304;2023-02-19T11:37:25;98427.59;;;12.26;61.73
967;BME280;56108;48.730;9.304;2023-02-19T11:39:33;98426.84;;;12.10;60.97
967;BME280;56108;48.730;9.304;2023-02-19T11:41:57;98424.38;;;12.07;60.82
967;BME280;56108;48.730;9.304;2023-02-19T11:44:20;98425.88;;;11.82;61.84
967;BME280;56108;48.730;9.304;2023-02-19T11:46:38;98426.03;;;11.79;61.05
967;BME280;56108;48.730;9.304;2023-02-19T11:48:56;98413.34;;;11.68;61.65
967;BME280;56108;48.730;9.304;2023-02-19T11:51:17;98423.13;;;11.54;62.23
967;BME280;56108;48.730;9.304;2023-02-19T11:53:31;98422.16;;;11.40;63.20
967;BME280;56108;48.730;9.304;2023-02-19T11:55:50;98414.19;;;11.40;62.91
967;BME280;56108;48.730;9.304;2023-02-19T11:58:27;98419.47;;;11.26;63.99